Pagrindinis puslapis
METAR-TAF:

METAR-TAF

Oro uostai :

Anadyris, Rusija

platuma: 64-47N, ilguma: 177-34E, Aukštis: 62 m

Dabartinis oras

Ataskaita buvo paskelbta 26 minutes, ne 07:00 UTC
Vėjas 8 kt iš Šiaurės/Šiaurės Rytų
Temperatūra -27°C
Drėgmė 83%
Slėgis 1020 hPa
Matomumas 10 km arba daugiau
nėra debesų žemiau 1500 m ir nėra kamuolinių lietaus debesų

METAR: UHMA 280700Z 02004MPS CAVOK M27/M29 Q1020 R01/////// NOSIG RMK TDZ R01/02004G05MPS END R01/02003G04MPS QFE761/1015

Laikas: 19:26 (07:26 UTC)

Prognozė

Ataskaita buvo paskelbta 2 valandos ir 48 minutes, ne 04:38 UTC
Prognozė galioja nuo 28 metu 06 UTC su 29 metu 06 UTC
Vėjas 6 kt iš Šiaurės su gūsio iki 16 kt
Matomumas: 6000 m
Išsisklaidę debesys ne aukštis 500 ft
Laikinai
nuo 28 metu 06 UTC su 29 metu 06 UTC
Vėjas 14 kt iš Šiaurės/Šiaurės Vakarų
Matomumas: 3100 m
rūkana, Sniego pustymas pažeme

TAF: UHMA 280438Z 2806/2906 01003G08MPS 6000 SCT005 TEMPO 2806/2906 34007MPS 3100 BR DRSN

Orai ataskaitas ir orų prognozės (METAR, TAF).

turimą stotys yra geltonos ir raudonos taškus žemėlapyje.

Perkelti pele per norėdami pamatyti stoties vardą.

Tada spustelėkite, norėdami matyti oro stebėjimo ir prognozės.

Norėdami pakeisti žemėlapį: spustelėkite ant žalios mygtukų su juodo kryžiaus žemyn,; žalią mygtuką su brūkšneliu, jei norite nutolinti; arba žalių rodyklių gretimoms žemėlapius.


METAR-TAF: